createdAt,value
2023-05-17T00:02:00.756Z,4.82
2023-05-17T00:04:27.694Z,4.72
2023-05-17T00:06:54.435Z,6.47
2023-05-17T00:09:21.151Z,5.85
2023-05-17T00:11:48.076Z,5.63
2023-05-17T00:14:14.901Z,6.10
2023-05-17T00:16:41.728Z,5.00
2023-05-17T00:19:09.785Z,4.13
2023-05-17T00:21:36.657Z,4.43
2023-05-17T00:24:03.541Z,5.45
2023-05-17T00:26:30.225Z,6.15
2023-05-17T00:28:56.939Z,4.70
2023-05-17T00:31:23.705Z,4.10
2023-05-17T00:33:50.554Z,4.47
2023-05-17T00:36:17.243Z,4.22
2023-05-17T00:38:43.994Z,4.13
2023-05-17T00:41:11.706Z,5.03
2023-05-17T00:43:38.609Z,6.07
2023-05-17T00:46:05.346Z,5.97
2023-05-17T00:48:32.184Z,6.57
2023-05-17T00:50:59.115Z,4.45
2023-05-17T00:53:26.315Z,5.97
2023-05-17T00:55:55.070Z,4.82
2023-05-17T00:58:22.425Z,4.63
2023-05-17T01:00:51.112Z,5.25
2023-05-17T01:03:18.095Z,4.88
2023-05-17T01:05:45.163Z,5.40
2023-05-17T01:08:11.918Z,4.20
2023-05-17T01:10:58.766Z,6.22
2023-05-17T01:13:33.941Z,5.80
2023-05-17T01:16:16.718Z,3.97
2023-05-17T01:19:14.424Z,4.95
2023-05-17T01:22:05.018Z,5.70
2023-05-17T01:25:21.219Z,5.07
2023-05-17T01:27:49.715Z,5.03
2023-05-17T01:30:18.394Z,4.30
2023-05-17T01:32:45.874Z,5.00
2023-05-17T01:35:12.804Z,4.35
2023-05-17T01:37:40.074Z,4.68
2023-05-17T01:40:09.009Z,3.30
2023-05-17T01:42:40.124Z,3.45
2023-05-17T01:45:27.078Z,4.25
2023-05-17T01:48:06.253Z,4.03
2023-05-17T01:50:33.709Z,4.22
2023-05-17T01:53:39.822Z,4.25
2023-05-17T01:56:21.464Z,4.38
2023-05-17T01:58:48.980Z,4.35
2023-05-17T02:01:18.938Z,3.78
2023-05-17T02:03:49.062Z,5.22
2023-05-17T02:06:16.559Z,5.30
2023-05-17T02:08:43.348Z,4.03
2023-05-17T02:11:10.078Z,4.43
2023-05-17T02:13:36.817Z,4.53
2023-05-17T02:16:04.507Z,5.22
2023-05-17T02:18:32.824Z,4.03
2023-05-17T02:20:59.754Z,8.65
2023-05-17T02:23:26.670Z,5.30
2023-05-17T02:25:53.501Z,4.03
2023-05-17T02:28:21.259Z,4.97
2023-05-17T02:30:47.977Z,3.22
2023-05-17T02:33:14.827Z,5.05
2023-05-17T02:35:41.607Z,6.57
2023-05-17T02:38:08.298Z,3.67
2023-05-17T02:40:34.986Z,3.80
2023-05-17T02:43:01.696Z,2.67
2023-05-17T02:45:28.679Z,4.10
2023-05-17T02:47:55.802Z,4.10
2023-05-17T02:50:22.591Z,2.75
2023-05-17T02:52:49.324Z,3.88
2023-05-17T02:55:16.143Z,3.55
2023-05-17T02:57:42.844Z,4.18
2023-05-17T03:00:10.116Z,3.65
2023-05-17T03:02:37.116Z,3.88
2023-05-17T03:05:04.993Z,3.72
2023-05-17T03:07:31.724Z,3.17
2023-05-17T03:09:58.456Z,4.00
2023-05-17T03:12:25.588Z,4.03
2023-05-17T03:14:53.183Z,3.13
2023-05-17T03:17:19.944Z,4.90
2023-05-17T03:19:46.687Z,4.05
2023-05-17T03:22:13.451Z,5.82
2023-05-17T03:24:40.125Z,3.45
2023-05-17T03:27:06.894Z,4.05
2023-05-17T03:29:33.679Z,3.35
2023-05-17T03:32:00.457Z,3.10
2023-05-17T03:34:27.131Z,3.13
2023-05-17T03:36:54.018Z,3.03
2023-05-17T03:39:20.830Z,4.07
2023-05-17T03:41:47.533Z,2.88
2023-05-17T03:44:14.349Z,4.93
2023-05-17T03:46:41.067Z,4.47
2023-05-17T03:49:07.885Z,2.92
2023-05-17T03:51:34.744Z,4.97
2023-05-17T03:54:01.687Z,4.28
2023-05-17T03:56:28.470Z,4.57
2023-05-17T03:58:55.170Z,4.05
2023-05-17T04:01:22.082Z,8.70
2023-05-17T04:03:48.983Z,4.80
2023-05-17T04:06:16.103Z,3.38
2023-05-17T04:08:42.934Z,4.03
2023-05-17T04:11:16.088Z,3.45
2023-05-17T04:13:43.263Z,4.25
2023-05-17T04:16:10.451Z,4.78
2023-05-17T04:18:38.437Z,4.40
2023-05-17T04:21:05.859Z,4.13
2023-05-17T04:23:33.441Z,3.80
2023-05-17T04:26:00.212Z,3.45
2023-05-17T04:28:27.542Z,3.15
2023-05-17T04:30:55.781Z,3.78
2023-05-17T04:33:23.350Z,4.82
2023-05-17T04:35:51.167Z,3.03
2023-05-17T04:38:17.977Z,3.70
2023-05-17T04:40:44.663Z,4.60
2023-05-17T04:43:11.637Z,2.80
2023-05-17T04:45:38.642Z,4.32
2023-05-17T04:48:05.585Z,3.38
2023-05-17T04:50:32.305Z,4.50
2023-05-17T04:52:59.064Z,3.83
2023-05-17T04:55:26.438Z,3.35
2023-05-17T04:57:53.340Z,3.65
2023-05-17T05:00:22.969Z,3.45
2023-05-17T05:02:50.071Z,3.25
2023-05-17T05:05:16.863Z,4.82
2023-05-17T05:07:44.619Z,2.92
2023-05-17T05:10:11.361Z,4.00
2023-05-17T05:12:38.280Z,3.22
2023-05-17T05:15:05.985Z,3.97
2023-05-17T05:17:34.055Z,4.95
2023-05-17T05:20:01.069Z,4.35
2023-05-17T05:22:27.867Z,4.95
2023-05-17T05:24:55.825Z,3.25
2023-05-17T05:27:22.558Z,4.40
2023-05-17T05:29:49.265Z,3.33
2023-05-17T05:32:17.297Z,3.88
2023-05-17T05:34:44.169Z,4.22
2023-05-17T05:37:11.007Z,4.57
2023-05-17T05:39:37.879Z,5.20
2023-05-17T05:42:05.092Z,3.38
2023-05-17T05:44:32.019Z,4.18
2023-05-17T05:46:58.696Z,4.30
2023-05-17T05:49:25.429Z,3.75
2023-05-17T05:51:52.173Z,2.95
2023-05-17T05:54:18.877Z,5.35
2023-05-17T05:56:45.754Z,3.53
2023-05-17T05:59:12.467Z,4.03
2023-05-17T06:01:39.402Z,4.05
2023-05-17T06:04:06.074Z,2.90
2023-05-17T06:06:32.949Z,4.82
2023-05-17T06:08:59.975Z,4.20
2023-05-17T06:11:26.860Z,5.03
2023-05-17T06:13:53.554Z,3.20
2023-05-17T06:16:20.322Z,3.65
2023-05-17T06:18:49.399Z,4.22
2023-05-17T06:21:18.697Z,3.70
2023-05-17T06:23:45.645Z,3.88
2023-05-17T06:26:12.392Z,3.65
2023-05-17T06:28:39.129Z,4.38
2023-05-17T06:31:05.923Z,3.47
2023-05-17T06:33:32.786Z,3.70
2023-05-17T06:38:27.471Z,3.67
2023-05-17T06:40:55.410Z,3.08
2023-05-17T06:43:22.670Z,3.78
2023-05-17T06:45:49.442Z,2.55
2023-05-17T06:48:16.617Z,2.78
2023-05-17T06:50:43.393Z,4.60
2023-05-17T06:53:10.092Z,3.75
2023-05-17T06:55:36.999Z,3.65
2023-05-17T06:58:03.707Z,3.20
2023-05-17T07:00:30.704Z,3.45
2023-05-17T07:02:57.740Z,4.03
2023-05-17T07:05:27.719Z,3.80
2023-05-17T07:07:55.023Z,2.92
2023-05-17T07:10:21.850Z,3.90
2023-05-17T07:12:48.645Z,3.20
2023-05-17T07:15:15.822Z,2.75
2023-05-17T07:17:42.650Z,2.33
2023-05-17T07:20:10.005Z,3.42
2023-05-17T07:22:37.618Z,1.83
2023-05-17T07:25:05.431Z,2.55
2023-05-17T07:27:32.170Z,3.05
2023-05-17T07:29:58.968Z,3.75
2023-05-17T07:32:25.689Z,3.60
2023-05-17T07:34:55.106Z,2.30
2023-05-17T07:37:21.826Z,3.10
2023-05-17T07:42:33.427Z,2.55
2023-05-17T07:45:00.194Z,2.30
2023-05-17T07:47:26.897Z,3.35
2023-05-17T07:49:53.630Z,3.63
2023-05-17T07:52:20.349Z,2.60
2023-05-17T07:54:47.046Z,3.80
2023-05-17T07:57:13.767Z,3.10
2023-05-17T07:59:40.794Z,3.47
2023-05-17T08:02:07.444Z,3.92
2023-05-17T08:04:34.213Z,4.00
2023-05-17T08:07:02.481Z,3.17
2023-05-17T08:09:29.237Z,2.67
2023-05-17T08:11:56.183Z,4.38
2023-05-17T08:14:24.511Z,4.45
2023-05-17T08:16:51.939Z,3.70
2023-05-17T08:19:19.287Z,4.10
2023-05-17T08:21:47.505Z,6.55
2023-05-17T08:24:14.274Z,3.70
2023-05-17T08:26:41.211Z,4.55
2023-05-17T08:29:07.991Z,12.10
2023-05-17T08:31:34.787Z,2.75
2023-05-17T08:34:01.550Z,3.80
2023-05-17T08:36:28.568Z,3.85
2023-05-17T08:38:55.610Z,3.70
2023-05-17T08:41:22.859Z,3.63
2023-05-17T08:43:51.078Z,3.22
2023-05-17T08:46:21.793Z,3.72
2023-05-17T08:48:52.074Z,2.53
2023-05-17T08:51:20.042Z,2.78
2023-05-17T08:53:47.628Z,2.70
2023-05-17T08:56:16.616Z,2.92
2023-05-17T09:01:25.862Z,4.50
2023-05-17T09:03:53.911Z,3.60
2023-05-17T09:06:22.404Z,3.10
2023-05-17T09:08:53.627Z,4.57
2023-05-17T09:11:30.326Z,3.92
2023-05-17T09:14:01.614Z,4.00
2023-05-17T09:16:29.717Z,4.25
2023-05-17T09:18:57.644Z,3.97
2023-05-17T09:21:25.297Z,4.50
2023-05-17T09:24:02.305Z,4.75
2023-05-17T09:26:43.700Z,4.32
2023-05-17T09:29:15.374Z,4.63
2023-05-17T09:31:43.344Z,4.45
2023-05-17T09:34:10.465Z,4.10
2023-05-17T09:36:38.625Z,3.00
2023-05-17T09:39:08.131Z,5.22
2023-05-17T09:41:42.105Z,3.65
2023-05-17T09:44:09.612Z,5.22
2023-05-17T09:46:39.453Z,4.53
2023-05-17T09:49:07.157Z,5.03
2023-05-17T09:51:41.240Z,5.20
2023-05-17T09:54:08.397Z,2.95
2023-05-17T09:56:35.467Z,4.72
2023-05-17T09:59:03.102Z,4.47
2023-05-17T10:01:30.995Z,4.53
2023-05-17T10:04:02.911Z,5.05
2023-05-17T10:06:44.219Z,5.88
2023-05-17T10:09:14.931Z,3.40
2023-05-17T10:11:44.326Z,4.68
2023-05-17T10:14:32.576Z,6.40
2023-05-17T10:17:00.508Z,4.28
2023-05-17T10:19:27.530Z,3.40
2023-05-17T10:21:56.633Z,4.57
2023-05-17T10:26:53.145Z,4.20
2023-05-17T10:29:22.650Z,9.07
2023-05-17T10:31:51.388Z,2.85
2023-05-17T10:34:21.227Z,4.05
2023-05-17T10:36:50.130Z,3.90
2023-05-17T10:39:17.074Z,3.83
2023-05-17T10:41:45.928Z,3.88
2023-05-17T10:44:14.118Z,4.10
2023-05-17T10:46:40.854Z,3.92
2023-05-17T10:49:07.676Z,3.38
2023-05-17T10:51:37.857Z,2.88
2023-05-17T10:54:12.004Z,3.78
2023-05-17T10:56:47.254Z,4.55
2023-05-17T11:02:05.410Z,3.75
2023-05-17T11:04:35.156Z,3.20
2023-05-17T11:07:17.438Z,2.70
2023-05-17T11:09:45.338Z,3.88
2023-05-17T11:12:13.575Z,3.45
2023-05-17T11:14:46.269Z,3.58
2023-05-17T11:20:24.220Z,3.40
2023-05-17T11:22:58.856Z,4.35
2023-05-17T11:25:32.744Z,3.47
2023-05-17T11:27:59.993Z,4.63
2023-05-17T11:30:29.100Z,4.25
2023-05-17T11:33:03.061Z,4.15
2023-05-17T11:35:38.162Z,4.38
2023-05-17T11:38:19.206Z,4.15
2023-05-17T11:40:47.973Z,4.00
2023-05-17T11:43:23.259Z,3.95
2023-05-17T11:45:55.725Z,4.32
2023-05-17T11:48:23.804Z,4.13
2023-05-17T11:50:52.218Z,4.15
2023-05-17T11:53:19.457Z,4.28
2023-05-17T11:55:48.031Z,4.60
2023-05-17T11:58:16.330Z,4.60
2023-05-17T12:00:43.512Z,5.20
2023-05-17T12:03:22.190Z,4.85
2023-05-17T12:06:09.563Z,4.70
2023-05-17T12:08:38.565Z,5.57
2023-05-17T12:11:07.187Z,5.55
2023-05-17T12:13:35.309Z,4.78
2023-05-17T12:16:08.749Z,4.93
2023-05-17T12:18:39.266Z,4.90
2023-05-17T12:21:07.716Z,3.63
2023-05-17T12:23:35.254Z,4.35
2023-05-17T12:26:09.964Z,5.15
2023-05-17T12:28:39.044Z,5.28
2023-05-17T12:31:10.291Z,4.72
2023-05-17T12:33:41.127Z,5.78
2023-05-17T12:36:09.836Z,4.10
2023-05-17T12:38:38.478Z,3.78
2023-05-17T12:41:06.207Z,4.68
2023-05-17T12:43:34.161Z,6.07
2023-05-17T12:46:05.878Z,5.20
2023-05-17T12:48:41.121Z,5.65
2023-05-17T12:51:10.058Z,6.18
2023-05-17T12:53:43.178Z,4.88
2023-05-17T12:56:16.138Z,5.70
2023-05-17T12:58:42.981Z,5.20
2023-05-17T13:01:14.358Z,4.32
2023-05-17T13:03:44.193Z,6.22
2023-05-17T13:06:11.330Z,5.75
2023-05-17T13:08:38.169Z,6.72
2023-05-17T13:11:13.655Z,5.70
2023-05-17T13:13:41.175Z,5.65
2023-05-17T13:16:08.227Z,4.55
2023-05-17T13:18:51.878Z,4.88
2023-05-17T13:21:20.008Z,4.18
2023-05-17T13:23:48.394Z,6.47
2023-05-17T13:26:18.878Z,4.63
2023-05-17T13:28:46.483Z,4.72
2023-05-17T13:31:13.435Z,5.60
2023-05-17T13:33:40.383Z,5.75
2023-05-17T13:36:07.297Z,5.35
2023-05-17T13:38:34.147Z,5.32
2023-05-17T13:41:00.947Z,6.10
2023-05-17T13:43:27.771Z,10.55
2023-05-17T13:45:58.893Z,6.28
2023-05-17T13:48:25.899Z,9.95
2023-05-17T13:50:53.044Z,5.72
2023-05-17T13:53:19.845Z,6.05
2023-05-17T13:55:46.881Z,5.47
2023-05-17T13:58:14.444Z,4.93
2023-05-17T14:00:43.999Z,4.28
2023-05-17T14:03:12.482Z,4.15
2023-05-17T14:05:40.165Z,5.97
2023-05-17T14:08:07.774Z,4.35
2023-05-17T14:10:35.496Z,5.53
2023-05-17T14:13:02.722Z,5.28
2023-05-17T14:15:29.573Z,3.53
2023-05-17T14:17:56.460Z,4.68
2023-05-17T14:20:23.280Z,5.32
2023-05-17T14:22:50.906Z,4.32
2023-05-17T14:25:17.656Z,6.10
2023-05-17T14:27:44.472Z,5.75
2023-05-17T14:30:13.519Z,5.90
2023-05-17T14:32:40.822Z,8.52
2023-05-17T14:35:08.383Z,5.57
2023-05-17T14:37:35.373Z,7.07
2023-05-17T14:42:32.047Z,5.97
2023-05-17T14:44:58.841Z,5.35
2023-05-17T14:47:25.863Z,5.35
2023-05-17T14:49:52.687Z,5.00
2023-05-17T14:52:19.406Z,5.10
2023-05-17T14:54:46.217Z,5.53
2023-05-17T14:57:13.715Z,5.60
2023-05-17T14:59:41.346Z,5.93
2023-05-17T15:02:09.226Z,5.00
2023-05-17T15:04:36.280Z,6.53
2023-05-17T15:07:03.370Z,6.00
2023-05-17T15:09:31.210Z,5.05
2023-05-17T15:11:58.107Z,6.53
2023-05-17T15:14:25.234Z,5.85
2023-05-17T15:16:52.924Z,5.70
2023-05-17T15:19:19.724Z,5.25
2023-05-17T15:21:46.690Z,5.70
2023-05-17T15:24:15.960Z,6.25
2023-05-17T15:26:44.535Z,4.47
2023-05-17T15:29:11.802Z,6.65
2023-05-17T15:31:38.605Z,5.18
2023-05-17T15:34:05.483Z,4.70
2023-05-17T15:36:50.778Z,5.63
2023-05-17T15:39:17.663Z,4.95
2023-05-17T15:41:45.609Z,6.47
2023-05-17T15:44:12.432Z,7.00
2023-05-17T15:46:39.594Z,6.15
2023-05-17T15:49:06.754Z,5.32
2023-05-17T15:51:33.642Z,6.50
2023-05-17T15:54:00.523Z,6.75
2023-05-17T15:56:27.376Z,6.78
2023-05-17T15:58:54.178Z,11.38
2023-05-17T16:01:20.970Z,7.82
2023-05-17T16:03:47.880Z,6.93
2023-05-17T16:06:14.801Z,6.35
2023-05-17T16:08:42.094Z,7.00
2023-05-17T16:11:10.133Z,7.75
2023-05-17T16:13:36.950Z,6.60
2023-05-17T16:16:03.823Z,6.97
2023-05-17T16:18:31.520Z,12.18
2023-05-17T16:21:08.126Z,10.43
2023-05-17T16:23:34.922Z,11.98
2023-05-17T16:26:01.673Z,8.02
2023-05-17T16:28:28.891Z,7.50
2023-05-17T16:30:56.253Z,7.57
2023-05-17T16:33:23.238Z,6.50
2023-05-17T16:35:50.154Z,7.15
2023-05-17T16:38:17.089Z,8.98
2023-05-17T16:40:43.891Z,6.05
2023-05-17T16:43:15.799Z,7.10
2023-05-17T16:45:45.797Z,5.50
2023-05-17T16:48:14.231Z,5.38
2023-05-17T16:50:44.379Z,6.82
2023-05-17T16:53:11.104Z,5.75
2023-05-17T16:55:37.975Z,7.50
2023-05-17T16:58:05.127Z,6.88
2023-05-17T17:00:32.310Z,7.45
2023-05-17T17:02:59.563Z,7.32
2023-05-17T17:05:27.505Z,7.80
2023-05-17T17:07:54.723Z,9.27
2023-05-17T17:10:21.532Z,7.90
2023-05-17T17:12:49.011Z,7.10
2023-05-17T17:15:15.881Z,7.20
2023-05-17T17:17:42.867Z,8.52
2023-05-17T17:20:10.142Z,6.97
2023-05-17T17:22:36.830Z,6.88
2023-05-17T17:25:03.775Z,8.02
2023-05-17T17:27:30.812Z,7.65
2023-05-17T17:29:57.580Z,7.55
2023-05-17T17:32:24.326Z,9.02
2023-05-17T17:34:52.271Z,7.22
2023-05-17T17:37:19.030Z,7.30
2023-05-17T17:39:45.882Z,8.23
2023-05-17T17:42:12.630Z,8.00
2023-05-17T17:44:39.295Z,8.15
2023-05-17T17:47:06.335Z,7.90
2023-05-17T17:49:33.078Z,9.50
2023-05-17T17:51:59.813Z,7.80
2023-05-17T17:54:26.530Z,8.00
2023-05-17T17:56:53.240Z,10.48
2023-05-17T17:59:19.936Z,8.20
2023-05-17T18:01:46.705Z,10.13
2023-05-17T18:04:16.153Z,8.57
2023-05-17T18:06:44.354Z,7.85
2023-05-17T18:09:11.145Z,8.77
2023-05-17T18:11:37.903Z,8.25
2023-05-17T18:14:04.873Z,8.10
2023-05-17T18:16:31.748Z,9.15
2023-05-17T18:18:58.485Z,7.55
2023-05-17T18:21:25.347Z,7.97
2023-05-17T18:23:52.047Z,8.95
2023-05-17T18:26:18.749Z,6.88
2023-05-17T18:28:45.585Z,7.88
2023-05-17T18:31:14.287Z,8.35
2023-05-17T18:33:41.019Z,7.90
2023-05-17T18:36:07.938Z,9.00
2023-05-17T18:38:35.604Z,9.18
2023-05-17T18:41:02.418Z,6.90
2023-05-17T18:43:31.419Z,5.70
2023-05-17T18:45:58.142Z,5.72
2023-05-17T18:48:25.364Z,7.45
2023-05-17T18:50:52.187Z,5.45
2023-05-17T18:53:18.925Z,7.13
2023-05-17T18:55:45.830Z,7.85
2023-05-17T18:58:12.572Z,6.88
2023-05-17T19:00:39.462Z,7.35
2023-05-17T19:03:06.218Z,6.68
2023-05-17T19:05:33.136Z,6.32
2023-05-17T19:07:59.828Z,6.95
2023-05-17T19:10:26.610Z,6.38
2023-05-17T19:12:53.380Z,6.82
2023-05-17T19:15:20.736Z,5.47
2023-05-17T19:17:47.531Z,5.28
2023-05-17T19:20:14.337Z,6.55
2023-05-17T19:22:41.058Z,5.03
2023-05-17T19:25:08.191Z,6.45
2023-05-17T19:27:34.926Z,5.47
2023-05-17T19:30:01.789Z,6.47
2023-05-17T19:32:28.611Z,4.57
2023-05-17T19:34:55.482Z,6.70
2023-05-17T19:37:22.156Z,5.90
2023-05-17T19:39:48.896Z,6.90
2023-05-17T19:42:15.641Z,5.95
2023-05-17T19:44:42.416Z,6.15
2023-05-17T19:47:09.164Z,5.00
2023-05-17T19:49:36.279Z,6.18
2023-05-17T19:52:03.125Z,6.45
2023-05-17T19:54:30.290Z,6.18
2023-05-17T19:56:57.345Z,4.93
2023-05-17T19:59:24.135Z,4.18
2023-05-17T20:01:51.383Z,6.07
2023-05-17T20:04:18.199Z,5.13
2023-05-17T20:06:45.116Z,6.88
2023-05-17T20:09:11.986Z,5.53
2023-05-17T20:11:38.819Z,6.15
2023-05-17T20:14:05.552Z,4.55
2023-05-17T20:16:32.444Z,4.57
2023-05-17T20:18:59.367Z,5.30
2023-05-17T20:21:26.525Z,5.50
2023-05-17T20:24:00.819Z,4.05
2023-05-17T20:26:31.873Z,6.35
2023-05-17T20:28:59.337Z,4.95
2023-05-17T20:31:26.360Z,4.72
2023-05-17T20:33:53.430Z,3.67
2023-05-17T20:36:20.237Z,4.28
2023-05-17T20:38:47.060Z,4.30
2023-05-17T20:41:16.024Z,4.28
2023-05-17T20:43:46.038Z,3.95
2023-05-17T20:46:16.698Z,3.88
2023-05-17T20:48:46.068Z,3.83
2023-05-17T20:51:13.207Z,3.80
2023-05-17T20:53:40.342Z,3.78
2023-05-17T20:56:07.539Z,4.28
2023-05-17T20:58:34.563Z,3.75
2023-05-17T21:01:01.560Z,4.07
2023-05-17T21:03:33.230Z,3.70
2023-05-17T21:06:05.434Z,4.50
2023-05-17T21:08:33.062Z,6.28
2023-05-17T21:11:00.472Z,3.65
2023-05-17T21:13:27.472Z,8.52
2023-05-17T21:15:55.193Z,3.80
2023-05-17T21:18:23.496Z,6.40
2023-05-17T21:20:51.819Z,21.50
2023-05-17T21:23:19.345Z,26.77
2023-05-17T21:25:46.197Z,3.03
2023-05-17T21:28:12.944Z,2.80
2023-05-17T21:30:39.796Z,2.97
2023-05-17T21:33:06.531Z,2.70
2023-05-17T21:35:33.396Z,3.45
2023-05-17T21:38:00.256Z,4.63
2023-05-17T21:40:26.935Z,3.60
2023-05-17T21:42:53.680Z,3.28
2023-05-17T21:45:20.495Z,2.00
2023-05-17T21:47:47.322Z,2.78
2023-05-17T21:50:14.170Z,4.40
2023-05-17T21:52:41.138Z,2.67
2023-05-17T21:55:08.838Z,1.95
2023-05-17T21:57:38.537Z,3.30
2023-05-17T22:00:07.925Z,3.45
2023-05-17T22:02:36.077Z,3.22
2023-05-17T22:05:03.116Z,2.05
2023-05-17T22:07:30.081Z,2.00
2023-05-17T22:09:58.415Z,2.80
2023-05-17T22:12:26.317Z,3.15
2023-05-17T22:14:54.323Z,3.67
2023-05-17T22:17:29.634Z,3.08
2023-05-17T22:20:00.284Z,2.70
2023-05-17T22:22:27.248Z,3.75
2023-05-17T22:24:54.430Z,3.15
2023-05-17T22:27:21.487Z,2.45
2023-05-17T22:29:48.899Z,2.88
2023-05-17T22:32:15.967Z,4.07
2023-05-17T22:34:42.798Z,3.50
2023-05-17T22:37:13.069Z,3.08
2023-05-17T22:39:40.809Z,2.28
2023-05-17T22:42:08.483Z,4.13
2023-05-17T22:44:36.512Z,3.30
2023-05-17T22:47:04.196Z,3.53
2023-05-17T22:49:34.291Z,3.38
2023-05-17T22:52:06.001Z,3.22
2023-05-17T22:54:36.465Z,3.65
2023-05-17T22:57:04.600Z,3.03
2023-05-17T22:59:34.639Z,2.63
2023-05-17T23:02:04.191Z,2.03
2023-05-17T23:04:31.573Z,1.60
2023-05-17T23:07:02.516Z,2.58
2023-05-17T23:09:30.296Z,2.03
2023-05-17T23:12:00.617Z,2.63
2023-05-17T23:14:27.459Z,1.83
2023-05-17T23:16:54.197Z,3.00
2023-05-17T23:19:21.211Z,2.83
2023-05-17T23:21:49.127Z,2.70
2023-05-17T23:24:15.876Z,2.60
2023-05-17T23:26:42.592Z,1.80
2023-05-17T23:29:10.759Z,3.20
2023-05-17T23:31:37.977Z,3.25
2023-05-17T23:34:06.994Z,2.88
2023-05-17T23:36:33.826Z,2.47
2023-05-17T23:39:00.620Z,2.92
2023-05-17T23:41:29.574Z,3.50
2023-05-17T23:43:57.267Z,2.50
2023-05-17T23:46:24.214Z,2.97
2023-05-17T23:48:50.982Z,2.75
2023-05-17T23:51:19.263Z,3.15
2023-05-17T23:53:48.856Z,3.17
2023-05-17T23:56:19.516Z,3.40
2023-05-17T23:58:46.648Z,1.90
